sensor_id;sensor_type;location;lat;lon;timestamp;temperature;humidity
18321;DHT22;54904;54.350;18.664;2024-02-21T00:01:49;9.40;99.90
18321;DHT22;54904;54.350;18.664;2024-02-21T00:04:18;9.40;99.90
18321;DHT22;54904;54.350;18.664;2024-02-21T00:06:46;9.40;99.90
18321;DHT22;54904;54.350;18.664;2024-02-21T00:09:13;9.40;99.90
18321;DHT22;54904;54.350;18.664;2024-02-21T00:11:40;9.40;99.90
18321;DHT22;54904;54.350;18.664;2024-02-21T00:14:07;9.40;99.90
18321;DHT22;54904;54.350;18.664;2024-02-21T00:16:34;9.40;99.90
18321;DHT22;54904;54.350;18.664;2024-02-21T00:19:02;9.50;99.90
18321;DHT22;54904;54.350;18.664;2024-02-21T00:21:30;9.40;99.90
18321;DHT22;54904;54.350;18.664;2024-02-21T00:23:57;9.40;99.90
18321;DHT22;54904;54.350;18.664;2024-02-21T00:26:24;9.40;99.90
18321;DHT22;54904;54.350;18.664;2024-02-21T00:28:51;9.50;99.90
18321;DHT22;54904;54.350;18.664;2024-02-21T00:31:18;9.50;99.90
18321;DHT22;54904;54.350;18.664;2024-02-21T00:33:46;9.50;99.90
18321;DHT22;54904;54.350;18.664;2024-02-21T00:36:13;9.50;99.90
18321;DHT22;54904;54.350;18.664;2024-02-21T00:38:42;9.50;99.90
18321;DHT22;54904;54.350;18.664;2024-02-21T00:41:09;9.40;99.90
18321;DHT22;54904;54.350;18.664;2024-02-21T00:43:36;9.40;99.90
18321;DHT22;54904;54.350;18.664;2024-02-21T00:46:05;9.40;99.90
18321;DHT22;54904;54.350;18.664;2024-02-21T00:48:33;9.40;99.90
18321;DHT22;54904;54.350;18.664;2024-02-21T00:51:00;9.40;99.90
18321;DHT22;54904;54.350;18.664;2024-02-21T00:53:28;9.40;99.90
18321;DHT22;54904;54.350;18.664;2024-02-21T00:55:56;9.30;99.90
18321;DHT22;54904;54.350;18.664;2024-02-21T00:58:23;9.30;99.90
18321;DHT22;54904;54.350;18.664;2024-02-21T01:00:50;9.30;99.90
18321;DHT22;54904;54.350;18.664;2024-02-21T01:03:17;9.30;99.90
18321;DHT22;54904;54.350;18.664;2024-02-21T01:05:45;9.30;99.90
18321;DHT22;54904;54.350;18.664;2024-02-21T01:08:12;9.30;99.90
18321;DHT22;54904;54.350;18.664;2024-02-21T01:10:39;9.20;99.90
18321;DHT22;54904;54.350;18.664;2024-02-21T01:13:07;9.30;99.90
18321;DHT22;54904;54.350;18.664;2024-02-21T01:15:34;9.20;99.90
18321;DHT22;54904;54.350;18.664;2024-02-21T01:18:02;9.20;99.90
18321;DHT22;54904;54.350;18.664;2024-02-21T01:20:30;9.20;99.90
18321;DHT22;54904;54.350;18.664;2024-02-21T01:22:57;9.20;99.90
18321;DHT22;54904;54.350;18.664;2024-02-21T01:25:24;9.30;99.90
18321;DHT22;54904;54.350;18.664;2024-02-21T01:27:51;9.30;99.90
18321;DHT22;54904;54.350;18.664;2024-02-21T01:30:20;9.20;99.90
18321;DHT22;54904;54.350;18.664;2024-02-21T01:32:47;9.30;99.90
18321;DHT22;54904;54.350;18.664;2024-02-21T01:35:14;9.30;99.90
18321;DHT22;54904;54.350;18.664;2024-02-21T01:37:41;9.20;99.90
18321;DHT22;54904;54.350;18.664;2024-02-21T01:40:09;9.30;99.90
18321;DHT22;54904;54.350;18.664;2024-02-21T01:42:38;9.30;99.90
18321;DHT22;54904;54.350;18.664;2024-02-21T01:45:07;9.30;99.90
18321;DHT22;54904;54.350;18.664;2024-02-21T01:47:36;9.30;99.90
18321;DHT22;54904;54.350;18.664;2024-02-21T01:50:04;9.30;99.90
18321;DHT22;54904;54.350;18.664;2024-02-21T01:52:31;9.30;99.90
18321;DHT22;54904;54.350;18.664;2024-02-21T01:55:00;9.30;99.90
18321;DHT22;54904;54.350;18.664;2024-02-21T01:57:27;9.20;99.90
18321;DHT22;54904;54.350;18.664;2024-02-21T01:59:54;9.20;99.90
18321;DHT22;54904;54.350;18.664;2024-02-21T02:02:21;9.20;99.90
18321;DHT22;54904;54.350;18.664;2024-02-21T02:04:51;9.20;99.90
18321;DHT22;54904;54.350;18.664;2024-02-21T02:07:19;9.20;99.90
18321;DHT22;54904;54.350;18.664;2024-02-21T02:09:46;9.20;99.90
18321;DHT22;54904;54.350;18.664;2024-02-21T02:12:13;9.20;99.90
18321;DHT22;54904;54.350;18.664;2024-02-21T02:14:41;9.20;99.90
18321;DHT22;54904;54.350;18.664;2024-02-21T02:17:08;9.30;99.90
18321;DHT22;54904;54.350;18.664;2024-02-21T02:19:35;9.20;99.90
18321;DHT22;54904;54.350;18.664;2024-02-21T02:22:10;9.20;99.90
18321;DHT22;54904;54.350;18.664;2024-02-21T02:24:42;9.20;99.90
18321;DHT22;54904;54.350;18.664;2024-02-21T02:27:09;9.20;99.90
18321;DHT22;54904;54.350;18.664;2024-02-21T02:29:36;9.20;99.90
18321;DHT22;54904;54.350;18.664;2024-02-21T02:32:03;9.20;99.90
18321;DHT22;54904;54.350;18.664;2024-02-21T02:34:31;9.20;99.90
18321;DHT22;54904;54.350;18.664;2024-02-21T02:36:58;9.20;99.90
18321;DHT22;54904;54.350;18.664;2024-02-21T02:39:25;9.20;99.90
18321;DHT22;54904;54.350;18.664;2024-02-21T02:41:53;9.10;99.90
18321;DHT22;54904;54.350;18.664;2024-02-21T02:44:20;9.10;99.90
18321;DHT22;54904;54.350;18.664;2024-02-21T02:46:47;9.00;99.90
18321;DHT22;54904;54.350;18.664;2024-02-21T02:49:14;9.10;99.90
18321;DHT22;54904;54.350;18.664;2024-02-21T02:51:42;9.00;99.90
18321;DHT22;54904;54.350;18.664;2024-02-21T02:54:09;9.00;99.90
18321;DHT22;54904;54.350;18.664;2024-02-21T02:56:36;9.00;99.90
18321;DHT22;54904;54.350;18.664;2024-02-21T02:59:05;8.90;99.90
18321;DHT22;54904;54.350;18.664;2024-02-21T03:01:34;8.90;99.90
18321;DHT22;54904;54.350;18.664;2024-02-21T03:04:01;9.00;99.90
18321;DHT22;54904;54.350;18.664;2024-02-21T03:06:28;9.00;99.90
18321;DHT22;54904;54.350;18.664;2024-02-21T03:08:55;9.00;99.90
18321;DHT22;54904;54.350;18.664;2024-02-21T03:11:22;9.00;99.90
18321;DHT22;54904;54.350;18.664;2024-02-21T03:13:55;9.00;99.90
18321;DHT22;54904;54.350;18.664;2024-02-21T03:16:24;9.00;99.90
18321;DHT22;54904;54.350;18.664;2024-02-21T03:18:51;9.00;99.90
18321;DHT22;54904;54.350;18.664;2024-02-21T03:21:18;9.00;99.90
18321;DHT22;54904;54.350;18.664;2024-02-21T03:23:45;9.00;99.90
18321;DHT22;54904;54.350;18.664;2024-02-21T03:26:12;9.00;99.90
18321;DHT22;54904;54.350;18.664;2024-02-21T03:28:42;9.00;99.90
18321;DHT22;54904;54.350;18.664;2024-02-21T03:31:11;9.00;99.90
18321;DHT22;54904;54.350;18.664;2024-02-21T03:33:42;9.00;99.90
18321;DHT22;54904;54.350;18.664;2024-02-21T03:36:13;9.00;99.90
18321;DHT22;54904;54.350;18.664;2024-02-21T03:38:40;9.00;99.90
18321;DHT22;54904;54.350;18.664;2024-02-21T03:41:07;9.00;99.90
18321;DHT22;54904;54.350;18.664;2024-02-21T03:43:34;9.00;99.90
18321;DHT22;54904;54.350;18.664;2024-02-21T03:46:02;9.00;99.90
18321;DHT22;54904;54.350;18.664;2024-02-21T03:48:29;9.00;99.90
18321;DHT22;54904;54.350;18.664;2024-02-21T03:50:57;9.00;99.90
18321;DHT22;54904;54.350;18.664;2024-02-21T03:53:24;9.10;99.90
18321;DHT22;54904;54.350;18.664;2024-02-21T03:55:51;9.00;99.90
18321;DHT22;54904;54.350;18.664;2024-02-21T03:58:19;9.00;99.90
18321;DHT22;54904;54.350;18.664;2024-02-21T04:00:46;9.00;99.90
18321;DHT22;54904;54.350;18.664;2024-02-21T04:03:13;9.00;99.90
18321;DHT22;54904;54.350;18.664;2024-02-21T04:05:40;9.00;99.90
18321;DHT22;54904;54.350;18.664;2024-02-21T04:08:09;9.00;99.90
18321;DHT22;54904;54.350;18.664;2024-02-21T04:10:36;9.00;99.90
18321;DHT22;54904;54.350;18.664;2024-02-21T04:13:05;9.00;99.90
18321;DHT22;54904;54.350;18.664;2024-02-21T04:15:32;9.00;99.90
18321;DHT22;54904;54.350;18.664;2024-02-21T04:18:00;9.00;99.90
18321;DHT22;54904;54.350;18.664;2024-02-21T04:20:29;9.00;99.90
18321;DHT22;54904;54.350;18.664;2024-02-21T04:22:56;9.00;99.90
18321;DHT22;54904;54.350;18.664;2024-02-21T04:25:24;9.00;99.90
18321;DHT22;54904;54.350;18.664;2024-02-21T04:27:52;9.00;99.90
18321;DHT22;54904;54.350;18.664;2024-02-21T04:30:19;8.90;99.90
18321;DHT22;54904;54.350;18.664;2024-02-21T04:32:46;8.90;99.90
18321;DHT22;54904;54.350;18.664;2024-02-21T04:35:13;8.90;99.90
18321;DHT22;54904;54.350;18.664;2024-02-21T04:37:40;8.90;99.90
18321;DHT22;54904;54.350;18.664;2024-02-21T04:40:08;8.90;99.90
18321;DHT22;54904;54.350;18.664;2024-02-21T04:42:36;8.90;99.90
18321;DHT22;54904;54.350;18.664;2024-02-21T04:45:04;8.90;99.90
18321;DHT22;54904;54.350;18.664;2024-02-21T04:47:32;9.00;99.90
18321;DHT22;54904;54.350;18.664;2024-02-21T04:49:59;8.90;99.90
18321;DHT22;54904;54.350;18.664;2024-02-21T04:52:26;8.90;99.90
18321;DHT22;54904;54.350;18.664;2024-02-21T04:54:53;8.90;99.90
18321;DHT22;54904;54.350;18.664;2024-02-21T04:57:20;8.90;99.90
18321;DHT22;54904;54.350;18.664;2024-02-21T04:59:48;9.00;99.90
18321;DHT22;54904;54.350;18.664;2024-02-21T05:02:15;9.00;99.90
18321;DHT22;54904;54.350;18.664;2024-02-21T05:04:42;9.00;99.90
18321;DHT22;54904;54.350;18.664;2024-02-21T05:07:09;9.00;99.90
18321;DHT22;54904;54.350;18.664;2024-02-21T05:09:37;9.00;99.90
18321;DHT22;54904;54.350;18.664;2024-02-21T05:12:05;9.00;99.90
18321;DHT22;54904;54.350;18.664;2024-02-21T05:14:32;9.00;99.90
18321;DHT22;54904;54.350;18.664;2024-02-21T05:17:00;9.00;99.90
18321;DHT22;54904;54.350;18.664;2024-02-21T05:19:27;9.00;99.90
18321;DHT22;54904;54.350;18.664;2024-02-21T05:21:54;9.00;99.90
18321;DHT22;54904;54.350;18.664;2024-02-21T05:24:21;9.00;99.90
18321;DHT22;54904;54.350;18.664;2024-02-21T05:26:48;9.00;99.90
18321;DHT22;54904;54.350;18.664;2024-02-21T05:29:16;9.00;99.90
18321;DHT22;54904;54.350;18.664;2024-02-21T05:31:55;9.00;99.90
18321;DHT22;54904;54.350;18.664;2024-02-21T05:34:24;8.90;99.90
18321;DHT22;54904;54.350;18.664;2024-02-21T05:36:52;8.90;99.90
18321;DHT22;54904;54.350;18.664;2024-02-21T05:39:19;8.90;99.90
18321;DHT22;54904;54.350;18.664;2024-02-21T05:41:48;8.90;99.90
18321;DHT22;54904;54.350;18.664;2024-02-21T05:44:16;8.90;99.90
18321;DHT22;54904;54.350;18.664;2024-02-21T05:46:43;8.90;99.90
18321;DHT22;54904;54.350;18.664;2024-02-21T05:49:11;8.90;99.90
18321;DHT22;54904;54.350;18.664;2024-02-21T05:51:39;8.90;99.90
18321;DHT22;54904;54.350;18.664;2024-02-21T05:54:06;8.90;99.90
18321;DHT22;54904;54.350;18.664;2024-02-21T05:56:34;8.90;99.90
18321;DHT22;54904;54.350;18.664;2024-02-21T05:59:01;8.90;99.90
18321;DHT22;54904;54.350;18.664;2024-02-21T06:01:28;8.90;99.90
18321;DHT22;54904;54.350;18.664;2024-02-21T06:03:55;8.90;99.90
18321;DHT22;54904;54.350;18.664;2024-02-21T06:06:22;8.90;99.90
18321;DHT22;54904;54.350;18.664;2024-02-21T06:08:51;8.90;99.90
18321;DHT22;54904;54.350;18.664;2024-02-21T06:11:18;8.90;99.90
18321;DHT22;54904;54.350;18.664;2024-02-21T06:13:45;8.90;99.90
18321;DHT22;54904;54.350;18.664;2024-02-21T06:16:12;9.00;99.90
18321;DHT22;54904;54.350;18.664;2024-02-21T06:18:39;9.00;99.90
18321;DHT22;54904;54.350;18.664;2024-02-21T06:21:06;9.00;99.90
18321;DHT22;54904;54.350;18.664;2024-02-21T06:23:33;9.00;99.90
18321;DHT22;54904;54.350;18.664;2024-02-21T06:26:02;9.00;99.90
18321;DHT22;54904;54.350;18.664;2024-02-21T06:28:29;9.10;99.90
18321;DHT22;54904;54.350;18.664;2024-02-21T06:30:56;9.00;99.90
18321;DHT22;54904;54.350;18.664;2024-02-21T06:33:23;9.10;99.90
18321;DHT22;54904;54.350;18.664;2024-02-21T06:35:50;9.10;99.90
18321;DHT22;54904;54.350;18.664;2024-02-21T06:38:19;9.10;99.90
18321;DHT22;54904;54.350;18.664;2024-02-21T06:40:46;9.10;99.90
18321;DHT22;54904;54.350;18.664;2024-02-21T06:43:20;9.10;99.90
18321;DHT22;54904;54.350;18.664;2024-02-21T06:45:48;9.10;99.90
18321;DHT22;54904;54.350;18.664;2024-02-21T06:48:17;9.00;99.90
18321;DHT22;54904;54.350;18.664;2024-02-21T06:50:45;9.10;99.90
18321;DHT22;54904;54.350;18.664;2024-02-21T06:53:12;9.10;99.90
18321;DHT22;54904;54.350;18.664;2024-02-21T06:55:39;9.10;99.90
18321;DHT22;54904;54.350;18.664;2024-02-21T06:58:07;9.10;99.90
18321;DHT22;54904;54.350;18.664;2024-02-21T07:00:39;9.10;99.90
18321;DHT22;54904;54.350;18.664;2024-02-21T07:03:06;9.10;99.90
18321;DHT22;54904;54.350;18.664;2024-02-21T07:05:33;9.10;99.90
18321;DHT22;54904;54.350;18.664;2024-02-21T07:08:00;9.10;99.90
18321;DHT22;54904;54.350;18.664;2024-02-21T07:10:29;9.10;99.90
18321;DHT22;54904;54.350;18.664;2024-02-21T07:12:56;9.10;99.90
18321;DHT22;54904;54.350;18.664;2024-02-21T07:15:23;9.10;99.90
18321;DHT22;54904;54.350;18.664;2024-02-21T07:17:53;9.10;99.90
18321;DHT22;54904;54.350;18.664;2024-02-21T07:20:21;9.10;99.90
18321;DHT22;54904;54.350;18.664;2024-02-21T07:22:48;9.20;99.90
18321;DHT22;54904;54.350;18.664;2024-02-21T07:25:15;9.20;99.90
18321;DHT22;54904;54.350;18.664;2024-02-21T07:27:43;9.20;99.90
18321;DHT22;54904;54.350;18.664;2024-02-21T07:30:10;9.20;99.90
18321;DHT22;54904;54.350;18.664;2024-02-21T07:32:38;9.30;99.90
18321;DHT22;54904;54.350;18.664;2024-02-21T07:35:07;9.30;99.90
18321;DHT22;54904;54.350;18.664;2024-02-21T07:37:36;9.30;99.90
18321;DHT22;54904;54.350;18.664;2024-02-21T07:40:05;9.30;99.90
18321;DHT22;54904;54.350;18.664;2024-02-21T07:42:33;9.40;99.90
18321;DHT22;54904;54.350;18.664;2024-02-21T07:45:01;9.40;99.90
18321;DHT22;54904;54.350;18.664;2024-02-21T07:47:29;9.40;99.90
18321;DHT22;54904;54.350;18.664;2024-02-21T07:49:56;9.40;99.90
18321;DHT22;54904;54.350;18.664;2024-02-21T07:52:24;9.40;99.90
18321;DHT22;54904;54.350;18.664;2024-02-21T07:54:51;9.40;99.90
18321;DHT22;54904;54.350;18.664;2024-02-21T07:57:18;9.40;99.90
18321;DHT22;54904;54.350;18.664;2024-02-21T07:59:45;9.40;99.90
18321;DHT22;54904;54.350;18.664;2024-02-21T08:02:13;9.40;99.90
18321;DHT22;54904;54.350;18.664;2024-02-21T08:04:40;9.40;99.90
18321;DHT22;54904;54.350;18.664;2024-02-21T08:07:07;9.40;99.90
18321;DHT22;54904;54.350;18.664;2024-02-21T08:09:36;9.40;99.90
18321;DHT22;54904;54.350;18.664;2024-02-21T08:12:05;9.50;99.90
18321;DHT22;54904;54.350;18.664;2024-02-21T08:14:32;9.40;99.90
18321;DHT22;54904;54.350;18.664;2024-02-21T08:16:59;9.40;99.90
18321;DHT22;54904;54.350;18.664;2024-02-21T08:19:26;9.40;99.90
18321;DHT22;54904;54.350;18.664;2024-02-21T08:21:53;9.40;99.90
18321;DHT22;54904;54.350;18.664;2024-02-21T08:24:20;9.50;99.90
18321;DHT22;54904;54.350;18.664;2024-02-21T08:26:50;9.50;99.90
18321;DHT22;54904;54.350;18.664;2024-02-21T08:29:17;9.50;99.90
18321;DHT22;54904;54.350;18.664;2024-02-21T08:31:44;9.50;99.90
18321;DHT22;54904;54.350;18.664;2024-02-21T08:34:11;9.40;99.90
18321;DHT22;54904;54.350;18.664;2024-02-21T08:36:39;9.40;99.90
18321;DHT22;54904;54.350;18.664;2024-02-21T08:39:06;9.50;99.90
18321;DHT22;54904;54.350;18.664;2024-02-21T08:41:35;9.50;99.90
18321;DHT22;54904;54.350;18.664;2024-02-21T08:44:03;9.50;99.90
18321;DHT22;54904;54.350;18.664;2024-02-21T08:46:31;9.50;99.90
18321;DHT22;54904;54.350;18.664;2024-02-21T08:48:59;9.50;99.90
18321;DHT22;54904;54.350;18.664;2024-02-21T08:51:26;9.50;99.90
18321;DHT22;54904;54.350;18.664;2024-02-21T08:53:54;9.50;99.90
18321;DHT22;54904;54.350;18.664;2024-02-21T08:56:21;9.50;99.90
18321;DHT22;54904;54.350;18.664;2024-02-21T08:58:48;9.50;99.90
18321;DHT22;54904;54.350;18.664;2024-02-21T09:01:17;9.50;99.90
18321;DHT22;54904;54.350;18.664;2024-02-21T09:03:44;9.50;99.90
18321;DHT22;54904;54.350;18.664;2024-02-21T09:06:12;9.50;99.90
18321;DHT22;54904;54.350;18.664;2024-02-21T09:08:39;9.50;99.90
18321;DHT22;54904;54.350;18.664;2024-02-21T09:11:06;9.60;99.90
18321;DHT22;54904;54.350;18.664;2024-02-21T09:13:33;9.60;99.90
18321;DHT22;54904;54.350;18.664;2024-02-21T09:16:01;9.60;99.90
18321;DHT22;54904;54.350;18.664;2024-02-21T09:18:30;9.60;99.90
18321;DHT22;54904;54.350;18.664;2024-02-21T09:20:57;9.70;99.90
18321;DHT22;54904;54.350;18.664;2024-02-21T09:23:24;9.70;99.90
18321;DHT22;54904;54.350;18.664;2024-02-21T09:25:51;9.70;99.90
18321;DHT22;54904;54.350;18.664;2024-02-21T09:28:18;9.70;99.90
18321;DHT22;54904;54.350;18.664;2024-02-21T09:30:45;9.70;99.90
18321;DHT22;54904;54.350;18.664;2024-02-21T09:33:12;9.70;99.90
18321;DHT22;54904;54.350;18.664;2024-02-21T09:35:41;9.70;99.90
18321;DHT22;54904;54.350;18.664;2024-02-21T09:38:08;9.70;99.90
18321;DHT22;54904;54.350;18.664;2024-02-21T09:40:35;9.80;99.90
18321;DHT22;54904;54.350;18.664;2024-02-21T09:43:05;9.70;99.90
18321;DHT22;54904;54.350;18.664;2024-02-21T09:45:33;9.80;99.90
18321;DHT22;54904;54.350;18.664;2024-02-21T09:50:57;9.80;99.90
18321;DHT22;54904;54.350;18.664;2024-02-21T09:53:26;9.90;99.90
18321;DHT22;54904;54.350;18.664;2024-02-21T09:55:55;9.90;99.90
18321;DHT22;54904;54.350;18.664;2024-02-21T09:58:23;9.90;99.90
18321;DHT22;54904;54.350;18.664;2024-02-21T10:00:51;9.90;99.90
18321;DHT22;54904;54.350;18.664;2024-02-21T10:03:18;9.90;99.90
18321;DHT22;54904;54.350;18.664;2024-02-21T10:05:48;10.00;99.90
18321;DHT22;54904;54.350;18.664;2024-02-21T10:08:18;10.00;99.90
18321;DHT22;54904;54.350;18.664;2024-02-21T10:10:49;10.00;99.90
18321;DHT22;54904;54.350;18.664;2024-02-21T10:13:25;10.00;99.90
18321;DHT22;54904;54.350;18.664;2024-02-21T10:16:07;10.00;99.90
18321;DHT22;54904;54.350;18.664;2024-02-21T10:18:34;10.10;99.90
18321;DHT22;54904;54.350;18.664;2024-02-21T10:21:05;10.10;99.90
18321;DHT22;54904;54.350;18.664;2024-02-21T10:23:44;10.10;99.90
18321;DHT22;54904;54.350;18.664;2024-02-21T10:26:12;10.20;99.90
18321;DHT22;54904;54.350;18.664;2024-02-21T10:28:39;10.40;99.90
18321;DHT22;54904;54.350;18.664;2024-02-21T10:31:10;10.60;99.90
18321;DHT22;54904;54.350;18.664;2024-02-21T10:33:38;10.70;99.90
18321;DHT22;54904;54.350;18.664;2024-02-21T10:36:09;10.70;99.90
18321;DHT22;54904;54.350;18.664;2024-02-21T10:38:39;10.70;99.90
18321;DHT22;54904;54.350;18.664;2024-02-21T10:41:09;10.70;99.90
18321;DHT22;54904;54.350;18.664;2024-02-21T10:43:39;10.70;99.90
18321;DHT22;54904;54.350;18.664;2024-02-21T10:46:07;10.70;99.90
18321;DHT22;54904;54.350;18.664;2024-02-21T10:48:43;10.60;99.90
18321;DHT22;54904;54.350;18.664;2024-02-21T10:51:15;10.60;99.90
18321;DHT22;54904;54.350;18.664;2024-02-21T10:53:47;10.60;99.90
18321;DHT22;54904;54.350;18.664;2024-02-21T10:56:22;10.60;99.90
18321;DHT22;54904;54.350;18.664;2024-02-21T10:58:53;10.60;99.90
18321;DHT22;54904;54.350;18.664;2024-02-21T11:01:21;10.60;99.90
18321;DHT22;54904;54.350;18.664;2024-02-21T11:03:51;10.60;99.90
18321;DHT22;54904;54.350;18.664;2024-02-21T11:06:20;10.50;99.90
18321;DHT22;54904;54.350;18.664;2024-02-21T11:08:58;10.50;99.90
18321;DHT22;54904;54.350;18.664;2024-02-21T11:11:27;10.50;99.90
18321;DHT22;54904;54.350;18.664;2024-02-21T11:14:04;10.50;99.90
18321;DHT22;54904;54.350;18.664;2024-02-21T11:16:36;10.50;99.90
18321;DHT22;54904;54.350;18.664;2024-02-21T11:19:05;10.50;99.90
18321;DHT22;54904;54.350;18.664;2024-02-21T11:21:36;10.50;99.90
18321;DHT22;54904;54.350;18.664;2024-02-21T11:24:03;10.50;99.90
18321;DHT22;54904;54.350;18.664;2024-02-21T11:26:32;10.50;99.90
18321;DHT22;54904;54.350;18.664;2024-02-21T11:29:00;10.50;99.90
18321;DHT22;54904;54.350;18.664;2024-02-21T11:31:38;10.60;99.90
18321;DHT22;54904;54.350;18.664;2024-02-21T11:34:09;10.60;99.90
18321;DHT22;54904;54.350;18.664;2024-02-21T11:36:49;10.60;99.90
18321;DHT22;54904;54.350;18.664;2024-02-21T11:39:21;10.60;99.90
18321;DHT22;54904;54.350;18.664;2024-02-21T11:42:05;10.60;99.90
18321;DHT22;54904;54.350;18.664;2024-02-21T11:44:34;10.60;99.90
18321;DHT22;54904;54.350;18.664;2024-02-21T11:47:03;10.60;99.90
18321;DHT22;54904;54.350;18.664;2024-02-21T11:49:30;10.60;99.90
18321;DHT22;54904;54.350;18.664;2024-02-21T11:51:58;10.60;99.90
18321;DHT22;54904;54.350;18.664;2024-02-21T11:54:26;10.60;99.90
18321;DHT22;54904;54.350;18.664;2024-02-21T11:56:53;10.60;99.90
18321;DHT22;54904;54.350;18.664;2024-02-21T11:59:22;10.70;99.90
18321;DHT22;54904;54.350;18.664;2024-02-21T12:01:49;10.70;99.90
18321;DHT22;54904;54.350;18.664;2024-02-21T12:04:18;10.70;99.90
18321;DHT22;54904;54.350;18.664;2024-02-21T12:06:46;10.80;99.90
18321;DHT22;54904;54.350;18.664;2024-02-21T12:09:14;10.80;99.90
18321;DHT22;54904;54.350;18.664;2024-02-21T12:11:42;10.80;99.90
18321;DHT22;54904;54.350;18.664;2024-02-21T12:14:10;10.90;99.90
18321;DHT22;54904;54.350;18.664;2024-02-21T12:16:38;11.10;99.90
18321;DHT22;54904;54.350;18.664;2024-02-21T12:19:06;11.40;99.90
18321;DHT22;54904;54.350;18.664;2024-02-21T12:21:35;11.70;99.90
18321;DHT22;54904;54.350;18.664;2024-02-21T12:24:12;12.10;99.90
18321;DHT22;54904;54.350;18.664;2024-02-21T12:26:39;12.40;99.90
18321;DHT22;54904;54.350;18.664;2024-02-21T12:29:07;12.70;99.90
18321;DHT22;54904;54.350;18.664;2024-02-21T12:31:35;12.80;99.90
18321;DHT22;54904;54.350;18.664;2024-02-21T12:34:03;12.90;99.90
18321;DHT22;54904;54.350;18.664;2024-02-21T12:36:31;12.90;99.90
18321;DHT22;54904;54.350;18.664;2024-02-21T12:38:58;12.80;99.90
18321;DHT22;54904;54.350;18.664;2024-02-21T12:41:26;12.80;99.90
18321;DHT22;54904;54.350;18.664;2024-02-21T12:43:53;12.70;99.90
18321;DHT22;54904;54.350;18.664;2024-02-21T12:46:22;12.70;99.90
18321;DHT22;54904;54.350;18.664;2024-02-21T12:48:50;12.70;99.90
18321;DHT22;54904;54.350;18.664;2024-02-21T12:51:18;12.70;99.90
18321;DHT22;54904;54.350;18.664;2024-02-21T12:53:47;12.70;99.90
18321;DHT22;54904;54.350;18.664;2024-02-21T12:56:15;12.80;99.90
18321;DHT22;54904;54.350;18.664;2024-02-21T12:58:42;12.90;99.90
18321;DHT22;54904;54.350;18.664;2024-02-21T13:01:10;13.00;99.90
18321;DHT22;54904;54.350;18.664;2024-02-21T13:03:37;13.10;99.90
18321;DHT22;54904;54.350;18.664;2024-02-21T13:06:05;13.10;99.90
18321;DHT22;54904;54.350;18.664;2024-02-21T13:08:33;13.10;99.90
18321;DHT22;54904;54.350;18.664;2024-02-21T13:11:01;13.10;99.90
18321;DHT22;54904;54.350;18.664;2024-02-21T13:13:28;12.90;99.90
18321;DHT22;54904;54.350;18.664;2024-02-21T13:15:56;12.80;99.90
18321;DHT22;54904;54.350;18.664;2024-02-21T13:18:23;12.70;99.90
18321;DHT22;54904;54.350;18.664;2024-02-21T13:20:50;12.60;99.90
18321;DHT22;54904;54.350;18.664;2024-02-21T13:23:17;13.10;99.90
18321;DHT22;54904;54.350;18.664;2024-02-21T13:25:48;13.70;99.90
18321;DHT22;54904;54.350;18.664;2024-02-21T13:28:16;14.10;99.90
18321;DHT22;54904;54.350;18.664;2024-02-21T13:30:43;14.60;99.90
18321;DHT22;54904;54.350;18.664;2024-02-21T13:33:11;15.10;99.90
18321;DHT22;54904;54.350;18.664;2024-02-21T13:35:38;15.30;99.90
18321;DHT22;54904;54.350;18.664;2024-02-21T13:38:05;15.30;99.90
18321;DHT22;54904;54.350;18.664;2024-02-21T13:40:32;15.00;99.90
18321;DHT22;54904;54.350;18.664;2024-02-21T13:43:01;14.50;99.90
18321;DHT22;54904;54.350;18.664;2024-02-21T13:45:31;14.10;99.90
18321;DHT22;54904;54.350;18.664;2024-02-21T13:47:58;13.80;99.90
18321;DHT22;54904;54.350;18.664;2024-02-21T13:50:30;13.60;99.90
18321;DHT22;54904;54.350;18.664;2024-02-21T13:52:57;13.50;99.90
18321;DHT22;54904;54.350;18.664;2024-02-21T13:55:24;13.20;99.90
18321;DHT22;54904;54.350;18.664;2024-02-21T13:57:52;13.20;99.90
18321;DHT22;54904;54.350;18.664;2024-02-21T14:00:21;13.00;99.90
18321;DHT22;54904;54.350;18.664;2024-02-21T14:02:48;12.90;99.90
18321;DHT22;54904;54.350;18.664;2024-02-21T14:05:15;12.80;99.90
18321;DHT22;54904;54.350;18.664;2024-02-21T14:07:42;12.80;99.90
18321;DHT22;54904;54.350;18.664;2024-02-21T14:10:10;12.80;99.90
18321;DHT22;54904;54.350;18.664;2024-02-21T14:12:37;12.70;99.90
18321;DHT22;54904;54.350;18.664;2024-02-21T14:15:06;12.70;99.90
18321;DHT22;54904;54.350;18.664;2024-02-21T14:17:36;12.70;99.90
18321;DHT22;54904;54.350;18.664;2024-02-21T14:20:05;12.70;99.90
18321;DHT22;54904;54.350;18.664;2024-02-21T14:22:33;12.60;99.90
18321;DHT22;54904;54.350;18.664;2024-02-21T14:25:00;12.50;99.90
18321;DHT22;54904;54.350;18.664;2024-02-21T14:27:28;12.50;99.90
18321;DHT22;54904;54.350;18.664;2024-02-21T14:29:55;12.40;99.90
18321;DHT22;54904;54.350;18.664;2024-02-21T14:32:22;12.40;99.90
18321;DHT22;54904;54.350;18.664;2024-02-21T14:34:50;12.30;99.90
18321;DHT22;54904;54.350;18.664;2024-02-21T14:37:17;12.30;99.90
18321;DHT22;54904;54.350;18.664;2024-02-21T14:39:47;12.20;99.90
18321;DHT22;54904;54.350;18.664;2024-02-21T14:42:14;12.20;99.90
18321;DHT22;54904;54.350;18.664;2024-02-21T14:44:41;12.10;99.90
18321;DHT22;54904;54.350;18.664;2024-02-21T14:47:08;12.10;99.90
18321;DHT22;54904;54.350;18.664;2024-02-21T14:49:35;12.00;99.90
18321;DHT22;54904;54.350;18.664;2024-02-21T14:52:04;12.00;99.90
18321;DHT22;54904;54.350;18.664;2024-02-21T14:54:31;11.90;99.90
18321;DHT22;54904;54.350;18.664;2024-02-21T14:56:58;11.80;99.90
18321;DHT22;54904;54.350;18.664;2024-02-21T14:59:25;11.80;99.90
18321;DHT22;54904;54.350;18.664;2024-02-21T15:01:52;11.80;99.90
18321;DHT22;54904;54.350;18.664;2024-02-21T15:04:22;11.80;99.90
18321;DHT22;54904;54.350;18.664;2024-02-21T15:06:50;11.80;99.90
18321;DHT22;54904;54.350;18.664;2024-02-21T15:09:18;11.70;99.90
18321;DHT22;54904;54.350;18.664;2024-02-21T15:11:45;11.80;99.90
18321;DHT22;54904;54.350;18.664;2024-02-21T15:14:12;11.80;99.90
18321;DHT22;54904;54.350;18.664;2024-02-21T15:16:40;11.70;99.90
18321;DHT22;54904;54.350;18.664;2024-02-21T15:19:07;11.70;99.90
18321;DHT22;54904;54.350;18.664;2024-02-21T15:21:34;11.70;99.90
18321;DHT22;54904;54.350;18.664;2024-02-21T15:24:01;11.70;99.90
18321;DHT22;54904;54.350;18.664;2024-02-21T15:26:30;11.70;99.90
18321;DHT22;54904;54.350;18.664;2024-02-21T15:28:57;11.60;99.90
18321;DHT22;54904;54.350;18.664;2024-02-21T15:31:25;11.60;99.90
18321;DHT22;54904;54.350;18.664;2024-02-21T15:33:52;11.60;99.90